createdAt,value
2017-08-21T01:42:40.928Z,99.99
2017-08-21T01:42:41.493Z,99.99
2017-08-21T01:42:42.099Z,99.99
2017-08-21T01:42:42.697Z,99.99
2017-08-21T01:42:43.299Z,99.99
2017-08-21T01:42:43.900Z,99.99
2017-08-21T01:42:44.498Z,99.99
2017-08-21T01:42:45.101Z,99.99
2017-08-21T01:42:45.694Z,99.99
2017-08-21T01:42:46.292Z,99.99
2017-08-21T01:42:46.890Z,99.99
2017-08-21T01:42:47.491Z,99.99
2017-08-21T01:45:32.700Z,99.99
2017-08-21T01:45:33.209Z,99.99
2017-08-21T01:45:33.808Z,99.99
2017-08-21T01:45:34.410Z,99.99
2017-08-21T01:45:35.005Z,99.99
2017-08-21T01:45:35.615Z,99.99
2017-08-21T01:45:36.208Z,99.99
2017-08-21T01:45:36.813Z,99.99
2017-08-21T01:45:37.409Z,99.99
2017-08-21T01:45:38.011Z,99.99
2017-08-21T01:45:38.607Z,99.99
2017-08-21T01:49:29.961Z,99.99
2017-08-21T01:49:30.472Z,99.99
2017-08-21T01:49:31.075Z,99.99
2017-08-21T01:53:05.782Z,99.99
2017-08-21T01:53:06.292Z,99.99
2017-08-21T01:53:06.891Z,99.99
2017-08-21T01:53:07.491Z,99.99
2017-08-21T01:53:08.095Z,99.99
2017-08-21T01:53:08.696Z,99.99
2017-08-21T01:53:09.289Z,99.99
2017-08-21T01:53:09.886Z,99.99
2017-08-21T01:53:10.487Z,99.99
2017-08-21T01:53:11.090Z,99.99
2017-08-21T01:53:11.694Z,99.99
2017-08-21T01:56:24.049Z,99.99
2017-08-21T01:56:24.613Z,99.99
2017-08-21T01:56:25.213Z,99.99
2017-08-21T01:56:25.833Z,99.99
2017-08-21T01:56:26.417Z,99.99
2017-08-21T01:56:27.015Z,99.99
2017-08-21T01:56:27.622Z,99.99
2017-08-21T01:56:28.212Z,99.99
2017-08-21T01:56:28.808Z,99.99
2017-08-21T01:56:29.411Z,99.99
2017-08-21T01:56:30.008Z,99.99
2017-08-21T01:56:30.610Z,99.99
2017-08-21T01:57:24.718Z,99.99
2017-08-21T01:57:25.310Z,99.99
2017-08-21T01:57:25.916Z,99.99
2017-08-21T01:57:26.512Z,99.99
2017-08-21T01:57:27.108Z,99.99
2017-08-21T01:57:27.709Z,99.99
2017-08-21T01:57:28.304Z,99.99
2017-08-21T01:57:28.915Z,99.99
2017-08-21T01:58:22.370Z,99.99
2017-08-21T01:58:22.960Z,99.99
2017-08-21T01:58:23.565Z,99.99
2017-08-21T01:58:24.158Z,99.99
2017-08-21T01:58:24.763Z,99.99
2017-08-21T01:58:25.361Z,99.99
2017-08-21T01:58:25.957Z,99.99
2017-08-21T01:58:26.561Z,99.99
2017-08-21T02:02:06.409Z,99.99
2017-08-21T02:02:06.916Z,99.99
2017-08-21T02:02:07.518Z,99.99
2017-08-21T02:02:08.112Z,99.99
2017-08-21T02:02:08.719Z,99.99
2017-08-21T02:02:09.324Z,99.99
2017-08-21T02:06:00.231Z,99.99
2017-08-21T02:06:00.795Z,99.99
2017-08-21T02:06:01.399Z,99.99
2017-08-21T02:06:01.992Z,99.99
2017-08-21T02:06:02.597Z,99.99
2017-08-21T02:06:03.191Z,99.99
2017-08-21T02:06:03.796Z,99.99
2017-08-21T02:07:39.327Z,99.99
2017-08-21T02:07:39.917Z,99.99
2017-08-21T02:07:40.519Z,99.99
2017-08-21T02:07:41.119Z,99.99
2017-08-21T02:07:41.716Z,99.99
2017-08-21T02:08:48.339Z,99.99
2017-08-21T02:08:48.938Z,99.99
2017-08-21T02:08:49.537Z,99.99
2017-08-21T02:08:50.135Z,99.99
2017-08-21T02:08:50.735Z,99.99
2017-08-21T02:56:47.774Z,99.99
2017-08-21T02:56:48.343Z,99.99
2017-08-21T02:56:48.945Z,99.99
2017-08-21T02:56:49.543Z,99.99
2017-08-21T02:56:50.146Z,99.99
2017-08-21T02:56:50.747Z,99.99
2017-08-21T02:56:51.340Z,99.99
2017-08-21T02:59:23.667Z,99.99
2017-08-21T02:59:24.238Z,99.99
2017-08-21T02:59:24.836Z,99.99
2017-08-21T02:59:25.438Z,99.99
2017-08-21T02:59:26.036Z,99.99
2017-08-21T02:59:26.643Z,99.99
2017-08-21T02:59:27.243Z,99.99
2017-08-21T02:59:27.834Z,99.99
2017-08-21T02:59:28.438Z,99.99
2017-08-21T02:59:29.036Z,99.99
2017-08-21T03:01:37.333Z,99.99
2017-08-21T04:08:01.701Z,99.99
2017-08-21T04:08:02.212Z,99.99
2017-08-21T04:08:02.811Z,99.99
2017-08-21T04:08:03.411Z,99.99
2017-08-21T04:08:04.008Z,99.99
2017-08-21T04:08:04.609Z,99.99
2017-08-21T04:08:05.205Z,99.99
2017-08-21T04:08:05.804Z,99.99
2017-08-21T04:08:06.405Z,99.99
2017-08-21T04:08:07.011Z,99.99
2017-08-21T04:08:07.612Z,99.99
2017-08-21T04:08:08.207Z,99.99
2017-08-21T04:08:08.809Z,99.99
2017-08-21T04:08:09.408Z,99.99
2017-08-21T04:09:04.449Z,99.99
2017-08-21T04:09:05.010Z,99.99
2017-08-21T04:09:05.615Z,99.99
2017-08-21T04:09:06.217Z,99.99
2017-08-21T04:09:06.813Z,99.99
2017-08-21T04:09:07.416Z,99.99
2017-08-21T04:10:33.511Z,99.99
2017-08-21T04:10:34.110Z,99.99
2017-08-21T04:10:34.709Z,99.99
2017-08-21T04:10:35.310Z,99.99
2017-08-21T04:10:35.906Z,99.99
2017-08-21T04:12:48.703Z,99.99
2017-08-21T04:12:49.291Z,99.99
2017-08-21T04:12:49.899Z,99.99
2017-08-21T04:12:50.492Z,99.99
2017-08-21T04:12:51.090Z,99.99
2017-08-21T04:12:51.697Z,99.99
2017-08-21T04:12:52.292Z,99.99
2017-08-21T04:12:52.893Z,99.99
2017-08-21T04:12:53.489Z,99.99
2017-08-21T04:12:54.097Z,99.99
2017-08-21T04:12:54.693Z,99.99
2017-08-21T04:12:55.288Z,99.99
2017-08-21T04:13:50.830Z,99.99
2017-08-21T04:13:51.433Z,99.99
2017-08-21T04:13:52.025Z,99.99
2017-08-21T04:13:52.632Z,99.99
2017-08-21T04:13:53.237Z,99.99
2017-08-21T04:13:53.830Z,99.99
2017-08-21T04:14:50.357Z,99.99
2017-08-21T04:14:50.927Z,99.99
2017-08-21T04:14:51.521Z,99.99
2017-08-21T04:14:52.126Z,99.99
2017-08-21T04:14:52.731Z,99.99
2017-08-21T04:14:53.322Z,99.99
2017-08-21T04:16:08.872Z,99.99
2017-08-21T04:16:09.464Z,99.99
2017-08-21T04:16:10.062Z,99.99
2017-08-21T04:16:10.665Z,99.99
2017-08-21T04:16:11.281Z,99.99
2017-08-21T04:16:11.867Z,99.99
2017-08-21T04:17:05.909Z,99.99
2017-08-21T04:17:06.512Z,99.99
2017-08-21T04:17:07.104Z,99.99
2017-08-21T04:17:07.705Z,99.99
2017-08-21T04:17:08.301Z,99.99
2017-08-21T04:17:08.905Z,99.99
2017-08-21T04:17:09.500Z,99.99
2017-08-21T04:17:10.105Z,99.99
2017-08-21T04:19:22.398Z,99.99
2017-08-21T04:19:22.992Z,99.99
2017-08-21T04:19:23.592Z,99.99
2017-08-21T04:19:24.194Z,99.99
2017-08-21T04:19:24.789Z,99.99
2017-08-21T04:19:25.390Z,99.99
2017-08-21T04:19:26.020Z,99.99
2017-08-21T04:19:26.589Z,99.99
2017-08-21T04:19:27.190Z,99.99
2017-08-21T04:19:27.792Z,99.99
2017-08-21T04:20:21.826Z,99.99
2017-08-21T04:20:22.394Z,99.99
2017-08-21T04:20:22.991Z,99.99
2017-08-21T04:20:23.606Z,99.99
2017-08-21T04:20:24.199Z,99.99
2017-08-21T04:20:24.799Z,99.99
2017-08-21T04:20:25.394Z,99.99
2017-08-21T04:21:18.939Z,99.99
2017-08-21T04:21:19.536Z,99.99
2017-08-21T04:21:20.145Z,99.99
2017-08-21T04:21:20.742Z,99.99
2017-08-21T04:21:21.334Z,99.99
2017-08-21T04:21:21.941Z,99.99
2017-08-21T04:21:22.537Z,99.99
2017-08-21T04:21:23.134Z,99.99
2017-08-21T04:22:24.166Z,99.99
2017-08-21T04:22:24.764Z,99.99
2017-08-21T04:22:25.369Z,99.99
2017-08-21T04:22:25.968Z,99.99
2017-08-21T04:22:26.564Z,99.99
2017-08-21T04:22:27.162Z,99.99
2017-08-21T04:22:27.762Z,99.99
2017-08-21T04:22:28.364Z,99.99
2017-08-21T04:22:28.959Z,99.99
2017-08-21T04:22:29.559Z,99.99
2017-08-21T04:22:30.168Z,99.99
2017-08-21T04:22:30.759Z,99.99
2017-08-21T04:23:24.283Z,99.99
2017-08-21T04:23:24.878Z,99.99
2017-08-21T04:23:25.483Z,99.99
2017-08-21T04:23:26.074Z,99.99
2017-08-21T04:23:26.675Z,99.99
2017-08-21T04:23:27.274Z,99.99
2017-08-21T04:23:27.877Z,99.99
2017-08-21T04:23:28.474Z,99.99
2017-08-21T04:24:53.983Z,99.99
2017-08-21T04:24:54.579Z,99.99
2017-08-21T04:24:55.178Z,99.99
2017-08-21T04:24:55.781Z,99.99
2017-08-21T04:24:56.380Z,99.99
2017-08-21T04:26:10.391Z,99.99
2017-08-21T04:26:10.969Z,99.99
2017-08-21T04:26:11.569Z,99.99
2017-08-21T04:26:12.167Z,99.99
2017-08-21T04:26:12.772Z,99.99
2017-08-21T04:26:13.368Z,99.99
2017-08-21T04:26:13.970Z,99.99
2017-08-21T04:27:25.024Z,99.99
2017-08-21T04:27:25.620Z,99.99
2017-08-21T04:27:26.214Z,99.99
2017-08-21T04:27:26.819Z,99.99
2017-08-21T04:27:27.417Z,99.99
2017-08-21T04:27:28.019Z,99.99
2017-08-21T04:27:28.621Z,99.99
2017-08-21T04:27:29.214Z,99.99
2017-08-21T04:27:29.820Z,99.99
2017-08-21T04:27:30.414Z,99.99
2017-08-21T04:27:31.018Z,99.99
2017-08-21T04:27:31.617Z,99.99
2017-08-21T04:28:47.660Z,99.99
2017-08-21T04:28:48.256Z,99.99
2017-08-21T04:28:48.860Z,99.99
2017-08-21T04:28:49.455Z,99.99
2017-08-21T04:29:43.468Z,99.99
2017-08-21T04:29:44.070Z,99.99
2017-08-21T04:29:44.667Z,99.99
2017-08-21T04:29:45.264Z,99.99
2017-08-21T04:29:45.865Z,99.99
2017-08-21T04:29:46.465Z,99.99
2017-08-21T04:29:47.060Z,99.99
2017-08-21T04:30:42.078Z,99.99
2017-08-21T04:30:42.638Z,99.99
2017-08-21T04:30:43.238Z,99.99
2017-08-21T04:30:43.838Z,99.99
2017-08-21T04:30:44.438Z,99.99
2017-08-21T04:30:45.039Z,99.99
2017-08-21T04:32:29.561Z,99.99
2017-08-21T04:32:30.160Z,99.99
2017-08-21T04:32:30.764Z,99.99
2017-08-21T04:32:31.359Z,99.99
2017-08-21T04:32:31.956Z,99.99
2017-08-21T04:32:32.563Z,99.99
2017-08-21T04:32:33.158Z,99.99
2017-08-21T04:33:27.113Z,99.99
2017-08-21T04:33:27.709Z,99.99
2017-08-21T04:33:28.304Z,99.99
2017-08-21T04:33:28.906Z,99.99
2017-08-21T04:33:29.519Z,99.99
2017-08-21T04:33:30.106Z,99.99
2017-08-21T04:33:30.705Z,99.99
2017-08-21T04:35:33.271Z,99.99
2017-08-21T04:35:33.784Z,99.99
2017-08-21T04:35:34.381Z,99.99
2017-08-21T04:35:34.985Z,99.99
2017-08-21T04:35:35.582Z,99.99
2017-08-21T04:35:36.179Z,99.99
2017-08-21T04:35:36.776Z,99.99
2017-08-21T04:35:37.378Z,99.99
2017-08-21T04:35:37.974Z,99.99
2017-08-21T04:35:38.591Z,99.99
2017-08-21T04:35:39.176Z,99.99
2017-08-21T04:37:00.232Z,99.99
2017-08-21T04:37:00.809Z,99.99
2017-08-21T04:37:01.410Z,99.99
2017-08-21T04:37:02.009Z,99.99
2017-08-21T04:37:02.609Z,99.99
2017-08-21T04:37:03.213Z,99.99
2017-08-21T04:37:03.806Z,99.99
2017-08-21T04:37:04.408Z,99.99
2017-08-21T04:37:05.006Z,99.99
2017-08-21T04:37:05.605Z,99.99
2017-08-21T04:37:06.206Z,99.99
2017-08-21T04:37:06.806Z,99.99
2017-08-21T04:38:05.849Z,99.99
2017-08-21T04:38:06.446Z,99.99
2017-08-21T04:38:07.050Z,99.99
2017-08-21T04:38:07.647Z,99.99
2017-08-21T04:38:08.240Z,99.99
2017-08-21T04:38:08.855Z,99.99
2017-08-21T04:39:03.804Z,99.99
2017-08-21T04:39:04.407Z,99.99
2017-08-21T04:39:04.998Z,99.99
2017-08-21T04:39:05.605Z,99.99
2017-08-21T04:39:06.206Z,99.99
2017-08-21T04:39:06.802Z,99.99
2017-08-21T04:39:07.398Z,99.99
2017-08-21T04:39:08.003Z,99.99
2017-08-21T04:40:01.968Z,99.99
2017-08-21T04:40:02.567Z,99.99
2017-08-21T04:40:03.170Z,99.99
2017-08-21T04:40:03.770Z,99.99
2017-08-21T04:40:05.033Z,99.99
2017-08-21T04:40:05.546Z,99.99
2017-08-21T04:41:00.573Z,99.99
2017-08-21T04:41:01.141Z,99.99
2017-08-21T04:41:01.740Z,99.99
2017-08-21T04:41:02.338Z,99.99
2017-08-21T04:41:02.938Z,99.99
2017-08-21T04:41:03.537Z,99.99
2017-08-21T04:41:58.505Z,99.99
2017-08-21T04:41:59.099Z,99.99
2017-08-21T04:41:59.694Z,99.99
2017-08-21T04:42:00.298Z,99.99
2017-08-21T04:42:00.897Z,99.99
2017-08-21T04:42:01.498Z,99.99
2017-08-21T04:42:02.094Z,99.99
2017-08-21T04:42:02.695Z,99.99
2017-08-21T04:42:56.663Z,99.99
2017-08-21T04:42:57.267Z,99.99
2017-08-21T04:42:57.861Z,99.99
2017-08-21T04:42:58.465Z,99.99
2017-08-21T04:42:59.061Z,99.99
2017-08-21T04:42:59.663Z,99.99
2017-08-21T04:43:00.264Z,99.99
2017-08-21T04:43:56.772Z,99.99
2017-08-21T04:43:57.368Z,99.99
2017-08-21T04:43:57.975Z,99.99
2017-08-21T04:45:45.679Z,99.99
2017-08-21T04:45:46.184Z,99.99
2017-08-21T04:45:46.721Z,99.99
2017-08-21T04:45:47.319Z,99.99
2017-08-21T04:45:47.920Z,99.99
2017-08-21T04:45:48.524Z,99.99
2017-08-21T04:45:49.124Z,99.99
2017-08-21T04:45:49.725Z,99.99
2017-08-21T04:45:50.319Z,99.99
2017-08-21T04:45:50.920Z,99.99
2017-08-21T04:45:51.517Z,99.99
2017-08-21T04:45:52.123Z,99.99
2017-08-21T04:45:52.721Z,99.99
2017-08-21T04:45:53.326Z,99.99
2017-08-21T04:45:53.920Z,99.99
2017-08-21T04:45:54.520Z,99.99
2017-08-21T04:45:55.115Z,99.99
2017-08-21T04:45:55.725Z,99.99
2017-08-21T04:46:59.793Z,99.99
2017-08-21T04:47:00.363Z,99.99
2017-08-21T04:47:00.965Z,99.99
2017-08-21T04:47:01.560Z,99.99
2017-08-21T04:47:02.174Z,99.99
2017-08-21T04:47:02.765Z,99.99
2017-08-21T04:47:03.360Z,99.99
2017-08-21T05:11:11.787Z,99.80
2017-08-21T05:11:12.288Z,99.85
2017-08-21T05:11:12.870Z,99.85
2017-08-21T05:11:13.475Z,99.80
2017-08-21T05:11:14.072Z,99.85
2017-08-21T05:11:14.668Z,99.80
2017-08-21T05:11:15.269Z,99.43
2017-08-21T05:11:15.877Z,99.57
2017-08-21T05:14:00.514Z,99.09
2017-08-21T05:14:01.033Z,98.99
2017-08-21T05:14:01.631Z,99.19
2017-08-21T05:14:02.227Z,98.99
2017-08-21T05:14:02.825Z,99.19
2017-08-21T05:14:03.425Z,99.19
2017-08-21T05:14:04.032Z,98.90
2017-08-21T05:14:04.625Z,99.19
2017-08-21T05:14:05.223Z,98.99
2017-08-21T05:14:06.541Z,99.09
2017-08-21T05:15:00.802Z,99.09
2017-08-21T05:15:01.371Z,99.28
2017-08-21T05:15:02.027Z,98.99
2017-08-21T05:15:02.685Z,99.28
2017-08-21T05:15:03.171Z,99.09
2017-08-21T05:15:03.792Z,98.99
2017-08-21T05:15:04.376Z,99.28
2017-08-21T05:16:18.454Z,99.38
2017-08-21T05:16:18.992Z,99.19
2017-08-21T05:16:19.595Z,99.38
2017-08-21T05:16:20.189Z,99.38
2017-08-21T05:16:20.795Z,98.99
2017-08-21T05:16:21.399Z,99.19
2017-08-21T05:16:21.996Z,99.28
2017-08-21T05:17:15.536Z,98.90
2017-08-21T05:17:16.134Z,98.80
2017-08-21T05:17:16.739Z,98.80
2017-08-21T05:17:17.342Z,98.80
2017-08-21T05:17:17.928Z,98.99
2017-08-21T05:17:18.534Z,98.90
2017-08-21T05:17:19.132Z,98.90
2017-08-21T05:17:19.729Z,98.90
2017-08-21T05:18:27.321Z,98.23
2017-08-21T05:18:27.934Z,98.23
2017-08-21T05:18:28.510Z,98.23
2017-08-21T05:19:23.545Z,98.33
2017-08-21T05:19:24.152Z,98.61
2017-08-21T05:19:24.740Z,98.33
2017-08-21T05:19:25.341Z,98.33
2017-08-21T05:19:25.932Z,98.33
2017-08-21T05:19:26.530Z,98.04
2017-08-21T05:20:21.496Z,98.23
2017-08-21T05:20:22.095Z,97.66
2017-08-21T05:20:22.689Z,98.13
2017-08-21T05:20:23.290Z,97.85
2017-08-21T05:20:23.890Z,98.23
2017-08-21T05:20:24.488Z,98.13
2017-08-21T05:20:25.090Z,98.13
2017-08-21T05:20:25.690Z,98.33
2017-08-21T05:21:22.251Z,98.23
2017-08-21T05:21:22.811Z,98.33
2017-08-21T05:21:23.410Z,98.23
2017-08-21T05:22:19.868Z,98.23
2017-08-21T05:22:20.463Z,98.52
2017-08-21T05:22:21.070Z,98.33
2017-08-21T05:23:14.551Z,97.94
2017-08-21T05:23:15.151Z,97.80
2017-08-21T05:23:15.743Z,98.04
2017-08-21T05:23:16.352Z,98.09
2017-08-21T05:23:16.946Z,97.90
2017-08-21T05:23:17.546Z,98.09
2017-08-21T05:23:18.143Z,97.28
2017-08-21T05:23:18.746Z,97.99
2017-08-21T05:24:24.287Z,97.61
2017-08-21T05:24:24.883Z,97.61
2017-08-21T05:24:25.488Z,97.99
2017-08-21T05:24:26.080Z,97.99
2017-08-21T05:24:26.692Z,97.52
2017-08-21T05:24:27.283Z,97.99
2017-08-21T05:25:21.226Z,97.80
2017-08-21T05:25:21.818Z,97.71
2017-08-21T05:25:22.418Z,97.42
2017-08-21T05:25:23.018Z,97.71
2017-08-21T05:25:23.621Z,97.80
2017-08-21T05:25:24.213Z,97.71
2017-08-21T05:25:24.818Z,97.42
2017-08-21T05:26:45.835Z,97.61
2017-08-21T05:26:46.405Z,98.09
2017-08-21T05:26:47.004Z,97.61
2017-08-21T05:26:47.597Z,97.99
2017-08-21T05:26:48.196Z,97.52
2017-08-21T05:26:48.802Z,97.99
2017-08-21T05:26:49.405Z,98.09
2017-08-21T05:26:50.004Z,97.33
2017-08-21T05:26:50.603Z,97.71
2017-08-21T05:26:51.196Z,97.52
2017-08-21T05:26:51.795Z,97.61
2017-08-21T05:26:52.402Z,97.52
2017-08-21T05:27:50.937Z,97.42
2017-08-21T05:27:51.524Z,97.52
2017-08-21T05:27:52.132Z,97.52
2017-08-21T05:27:52.729Z,97.52
2017-08-21T05:27:53.332Z,96.84
2017-08-21T05:27:53.932Z,97.52
2017-08-21T05:27:54.531Z,97.42
2017-08-21T05:27:55.131Z,96.84
2017-08-21T05:27:55.729Z,97.80
2017-08-21T05:27:56.329Z,97.42
2017-08-21T05:27:56.928Z,97.23
2017-08-21T05:27:57.532Z,97.23
2017-08-21T05:27:58.134Z,97.42
2017-08-21T05:27:58.728Z,97.33
2017-08-21T05:27:59.327Z,97.33
2017-08-21T05:27:59.927Z,97.33
2017-08-21T05:29:14.002Z,97.33
2017-08-21T05:29:14.576Z,97.52
2017-08-21T05:29:15.178Z,97.23
2017-08-21T05:29:15.776Z,97.71
2017-08-21T05:29:16.374Z,97.52
2017-08-21T05:29:16.972Z,97.61
2017-08-21T05:29:17.571Z,97.52
2017-08-21T05:30:12.560Z,96.47
2017-08-21T05:30:13.158Z,97.33
2017-08-21T05:30:13.751Z,97.23
2017-08-21T05:30:14.349Z,97.23
2017-08-21T05:30:14.948Z,97.33
2017-08-21T05:30:15.553Z,97.23
2017-08-21T05:31:09.605Z,97.23
2017-08-21T05:31:10.188Z,97.33
2017-08-21T05:31:10.789Z,96.56
2017-08-21T05:31:11.389Z,97.13
2017-08-21T05:31:11.985Z,96.84
2017-08-21T05:31:12.586Z,97.13
2017-08-21T05:31:13.196Z,97.33
2017-08-21T05:31:13.790Z,96.94
2017-08-21T05:32:10.349Z,97.04
2017-08-21T05:32:10.909Z,97.04
2017-08-21T05:32:11.510Z,97.13
2017-08-21T05:33:16.578Z,96.84
2017-08-21T05:33:17.159Z,96.75
2017-08-21T05:33:17.767Z,97.23
2017-08-21T05:33:18.388Z,96.66
2017-08-21T05:33:18.960Z,96.66
2017-08-21T05:33:19.564Z,97.42
2017-08-21T05:34:17.603Z,97.04
2017-08-21T05:34:18.194Z,97.13
2017-08-21T05:34:18.796Z,97.13
2017-08-21T05:35:13.815Z,97.13
2017-08-21T05:35:14.413Z,97.13
2017-08-21T05:35:15.008Z,97.13
2017-08-21T05:35:15.627Z,97.04
2017-08-21T05:35:16.216Z,97.04
2017-08-21T05:35:16.813Z,96.94
2017-08-21T05:38:59.700Z,96.22
2017-08-21T05:39:00.272Z,96.32
2017-08-21T05:39:00.890Z,96.42
2017-08-21T05:39:01.468Z,96.22
2017-08-21T05:39:02.067Z,96.22
2017-08-21T05:39:02.695Z,96.13
2017-08-21T05:39:03.270Z,96.32
2017-08-21T05:39:03.861Z,96.22
2017-08-21T05:39:04.463Z,96.32
2017-08-21T05:39:05.073Z,95.75
2017-08-21T05:39:05.664Z,96.22
2017-08-21T05:39:06.274Z,96.51
2017-08-21T05:41:39.382Z,96.03
2017-08-21T05:41:39.888Z,96.42
2017-08-21T05:41:40.478Z,96.13
2017-08-21T05:41:41.117Z,96.03
2017-08-21T05:41:41.680Z,95.94
2017-08-21T05:41:42.281Z,96.42
2017-08-21T05:41:42.881Z,95.94
2017-08-21T05:41:43.484Z,96.42
2017-08-21T05:41:44.082Z,96.42
2017-08-21T05:41:44.681Z,96.22
2017-08-21T05:41:45.283Z,96.22
2017-08-21T05:41:45.884Z,96.42
2017-08-21T05:41:46.485Z,96.42
2017-08-21T06:05:27.667Z,94.17
2017-08-21T06:05:28.234Z,94.26
2017-08-21T06:05:28.837Z,94.45
2017-08-21T06:05:29.434Z,94.45
2017-08-21T06:05:30.036Z,94.45
2017-08-21T06:40:16.796Z,91.05
2017-08-21T06:40:17.354Z,90.95
2017-08-21T06:40:17.952Z,90.95
2017-08-21T06:40:18.549Z,91.24
2017-08-21T06:40:19.184Z,90.95
2017-08-21T06:40:19.746Z,90.76
2017-08-21T06:40:20.353Z,91.14
2017-08-21T06:40:20.946Z,91.14
2017-08-21T06:40:21.553Z,91.05
2017-08-21T06:40:22.149Z,90.95
2017-08-21T06:40:22.750Z,91.05
2017-08-21T06:40:23.351Z,90.95
2017-08-21T06:41:17.443Z,90.28
2017-08-21T06:41:18.045Z,90.28
2017-08-21T06:41:18.639Z,90.28
2017-08-21T06:41:19.242Z,90.28
2017-08-21T06:41:19.857Z,90.19
2017-08-21T06:41:20.940Z,90.38
2017-08-21T06:41:21.453Z,90.19
2017-08-21T06:42:15.413Z,90.38
2017-08-21T06:42:15.999Z,90.47
2017-08-21T06:42:16.596Z,90.47
2017-08-21T06:42:17.201Z,90.57
2017-08-21T06:42:17.800Z,90.57
2017-08-21T06:42:18.395Z,90.38
2017-08-21T06:42:19.021Z,90.57
2017-08-21T07:07:04.447Z,86.38
2017-08-21T07:07:05.002Z,86.38
2017-08-21T07:07:05.604Z,86.68
2017-08-21T07:07:59.604Z,86.58
2017-08-21T07:08:00.199Z,86.58
2017-08-21T07:08:00.795Z,86.62
2017-08-21T07:08:01.400Z,86.77
2017-08-21T07:08:02.000Z,86.96
2017-08-21T07:08:02.596Z,86.96
2017-08-21T07:08:03.202Z,87.10
2017-08-21T07:08:59.717Z,85.75
2017-08-21T07:09:00.309Z,85.85
2017-08-21T07:09:00.922Z,85.75
2017-08-21T07:09:54.428Z,84.70
2017-08-21T07:09:54.995Z,84.60
2017-08-21T07:09:55.596Z,84.31
2017-08-21T07:09:56.193Z,84.03
2017-08-21T07:09:56.796Z,84.41
2017-08-21T07:09:57.389Z,84.22
2017-08-21T07:09:57.987Z,84.22
2017-08-21T07:09:58.591Z,84.22
2017-08-21T07:10:52.050Z,84.17
2017-08-21T07:10:52.644Z,83.69
2017-08-21T07:10:53.251Z,83.78
2017-08-21T07:10:53.846Z,83.69
2017-08-21T07:10:54.454Z,83.87
2017-08-21T07:10:55.050Z,83.78
2017-08-21T07:10:55.648Z,83.87
2017-08-21T07:10:56.248Z,83.78
2017-08-21T07:13:28.564Z,81.81
2017-08-21T07:13:29.156Z,81.71
2017-08-21T07:13:29.751Z,81.81
2017-08-21T07:13:30.353Z,81.81
2017-08-21T07:13:30.956Z,81.71
2017-08-21T07:13:31.553Z,81.81
2017-08-21T07:13:32.154Z,81.99
2017-08-21T07:13:32.749Z,81.81
2017-08-21T07:13:33.351Z,81.71
2017-08-21T07:13:33.950Z,81.71
2017-08-21T07:13:34.552Z,81.99
2017-08-21T07:13:35.149Z,81.52
2017-08-21T07:15:20.259Z,80.88
2017-08-21T07:15:20.830Z,80.98
2017-08-21T07:15:21.432Z,80.98
2017-08-21T07:15:22.035Z,80.98
2017-08-21T07:15:22.636Z,80.88
2017-08-21T07:15:23.236Z,80.98
2017-08-21T07:18:01.544Z,79.35
2017-08-21T08:10:53.042Z,75.86
2017-08-21T08:10:53.565Z,75.96
2017-08-21T08:10:54.171Z,75.96
2017-08-21T08:10:54.765Z,75.76
2017-08-21T08:10:55.369Z,75.76
2017-08-21T08:10:55.974Z,75.86
2017-08-21T08:10:56.570Z,75.67
2017-08-21T08:10:57.163Z,75.76
2017-08-21T08:11:53.186Z,75.76
2017-08-21T08:11:53.781Z,75.76
2017-08-21T08:11:54.381Z,75.96
2017-08-21T08:11:54.984Z,75.67
2017-08-21T08:11:55.586Z,75.67
2017-08-21T08:11:56.182Z,75.86
2017-08-21T08:12:51.247Z,76.18
2017-08-21T08:12:51.846Z,75.90
2017-08-21T08:12:52.445Z,75.80
2017-08-21T08:12:53.052Z,75.99
2017-08-21T08:12:53.682Z,75.61
2017-08-21T08:12:54.248Z,75.99
2017-08-21T08:12:54.841Z,75.80
2017-08-21T08:12:55.444Z,75.71
2017-08-21T08:13:50.435Z,74.74
2017-08-21T08:13:51.029Z,75.03
2017-08-21T08:13:51.626Z,75.03
2017-08-21T08:13:52.231Z,74.84
2017-08-21T08:13:52.826Z,75.03
2017-08-21T08:13:53.427Z,74.84
2017-08-21T08:13:54.033Z,75.13
2017-08-21T08:14:48.020Z,74.26
2017-08-21T08:14:48.578Z,73.97
2017-08-21T08:14:49.177Z,74.07
2017-08-21T08:14:49.775Z,74.07
2017-08-21T08:14:50.383Z,73.97
2017-08-21T08:14:50.975Z,73.97
2017-08-21T08:14:51.579Z,73.88
2017-08-21T08:15:55.690Z,74.51
2017-08-21T08:15:56.276Z,74.61
2017-08-21T08:15:57.651Z,74.71
2017-08-21T08:15:58.125Z,74.80
2017-08-21T08:15:58.860Z,74.74
2017-08-21T08:15:59.327Z,74.93
2017-08-21T08:16:53.530Z,75.61
2017-08-21T08:16:54.124Z,75.61
2017-08-21T08:16:54.718Z,75.51
2017-08-21T08:16:55.337Z,75.51
2017-08-21T08:16:55.919Z,75.51
2017-08-21T08:16:56.521Z,75.80
2017-08-21T08:16:57.128Z,75.80
2017-08-21T08:17:52.199Z,74.74
2017-08-21T08:17:52.794Z,74.74
2017-08-21T08:17:53.407Z,74.74
2017-08-21T08:17:53.995Z,74.93
2017-08-21T08:17:54.603Z,74.55
2017-08-21T08:17:55.202Z,74.74
2017-08-21T08:19:01.217Z,74.36
2017-08-21T08:19:01.821Z,73.78
2017-08-21T08:19:02.415Z,73.20
2017-08-21T08:19:03.016Z,73.68
2017-08-21T08:19:03.616Z,73.39
2017-08-21T08:19:59.215Z,73.68
2017-08-21T08:19:59.779Z,73.78
2017-08-21T08:20:00.380Z,73.58
2017-08-21T08:20:00.976Z,73.97
2017-08-21T08:20:01.578Z,74.16
2017-08-21T08:20:02.176Z,74.16
2017-08-21T08:20:02.774Z,73.97
2017-08-21T08:20:56.738Z,74.74
2017-08-21T08:20:57.331Z,74.65
2017-08-21T08:20:57.925Z,74.55
2017-08-21T08:20:58.528Z,74.55
2017-08-21T08:20:59.124Z,74.45
2017-08-21T08:20:59.724Z,74.45
2017-08-21T08:21:00.327Z,74.45
2017-08-21T08:21:55.304Z,74.26
2017-08-21T08:21:55.903Z,74.36
2017-08-21T08:21:56.498Z,74.45
2017-08-21T08:21:57.101Z,73.97
2017-08-21T08:21:57.703Z,73.97
2017-08-21T08:21:58.301Z,73.97
2017-08-21T08:22:56.337Z,73.39
2017-08-21T08:22:56.929Z,73.10
2017-08-21T08:22:57.525Z,73.30
2017-08-21T08:23:52.346Z,73.30
2017-08-21T08:23:52.944Z,73.68
2017-08-21T08:23:53.541Z,73.20
2017-08-21T08:23:54.145Z,73.39
2017-08-21T08:23:54.743Z,73.58
2017-08-21T08:23:55.343Z,73.68
2017-08-21T08:23:55.965Z,73.49
2017-08-21T08:24:49.490Z,73.58
2017-08-21T08:24:50.082Z,73.58
2017-08-21T08:24:50.682Z,73.78
2017-08-21T08:24:51.283Z,73.58
2017-08-21T08:24:51.881Z,73.78
2017-08-21T08:24:52.486Z,73.78
2017-08-21T08:24:53.086Z,73.78
2017-08-21T08:24:53.685Z,73.78
2017-08-21T08:26:03.243Z,73.94
2017-08-21T08:26:03.813Z,73.94
2017-08-21T08:26:04.414Z,73.94
2017-08-21T08:26:05.006Z,73.94
2017-08-21T08:26:05.610Z,74.13
2017-08-21T08:26:06.217Z,74.13
2017-08-21T08:26:06.814Z,73.84
2017-08-21T08:26:07.410Z,74.03
2017-08-21T08:26:08.014Z,74.13
2017-08-21T08:26:08.606Z,74.03
2017-08-21T08:26:09.213Z,74.13
2017-08-21T08:26:09.809Z,74.03
2017-08-21T08:26:10.412Z,73.74
2017-08-21T08:26:11.013Z,73.74
2017-08-21T08:26:11.609Z,73.84
2017-08-21T08:28:02.720Z,74.84
2017-08-21T08:28:03.318Z,74.74
2017-08-21T08:28:03.913Z,74.74
2017-08-21T08:28:04.510Z,74.65
2017-08-21T08:28:05.697Z,74.74
2017-08-21T08:28:06.209Z,74.74
2017-08-21T08:28:06.809Z,74.74
2017-08-21T08:28:07.411Z,74.84
2017-08-21T08:28:08.007Z,74.84
2017-08-21T08:28:08.609Z,74.74
2017-08-21T08:28:09.213Z,74.84
2017-08-21T08:28:09.806Z,74.55
2017-08-21T08:29:17.774Z,73.05
2017-08-21T08:29:18.370Z,73.14
2017-08-21T08:29:18.972Z,73.53
2017-08-21T08:29:19.574Z,73.24
2017-08-21T08:29:20.172Z,73.24
2017-08-21T08:29:20.774Z,73.05
2017-08-21T08:29:21.377Z,73.14
2017-08-21T08:30:17.375Z,72.79
2017-08-21T08:30:17.970Z,72.99
2017-08-21T08:30:18.569Z,73.18
2017-08-21T08:30:19.169Z,73.27
2017-08-21T08:30:19.769Z,72.69
2017-08-21T08:30:20.371Z,72.60
2017-08-21T08:31:15.367Z,72.50
2017-08-21T08:31:15.927Z,72.21
2017-08-21T08:31:16.532Z,72.41
2017-08-21T08:31:17.129Z,72.50
2017-08-21T08:31:17.735Z,72.41
2017-08-21T08:31:18.328Z,72.50
2017-08-21T08:31:18.928Z,72.50
2017-08-21T08:31:19.529Z,72.41
2017-08-21T08:32:14.006Z,72.08
2017-08-21T08:32:14.603Z,72.08
2017-08-21T08:32:15.208Z,72.66
2017-08-21T08:32:15.804Z,72.12
2017-08-21T08:32:16.404Z,72.47
2017-08-21T08:32:17.004Z,72.56
2017-08-21T08:32:17.605Z,72.47
2017-08-21T08:32:18.202Z,72.60
2017-08-21T08:33:12.689Z,72.47
2017-08-21T08:33:13.281Z,72.47
2017-08-21T08:33:13.879Z,72.47